sensor_id;sensor_type;location;lat;lon;timestamp;temperature;humidity
62464;SHT31;48512;48.552;9.380;2023-10-08T00:01:50;18.20;49.22
62464;SHT31;48512;48.552;9.380;2023-10-08T00:04:17;18.17;48.43
62464;SHT31;48512;48.552;9.380;2023-10-08T00:06:46;18.11;49.22
62464;SHT31;48512;48.552;9.380;2023-10-08T00:09:18;18.04;50.16
62464;SHT31;48512;48.552;9.380;2023-10-08T00:11:46;17.96;51.00
62464;SHT31;48512;48.552;9.380;2023-10-08T00:14:19;17.93;51.00
62464;SHT31;48512;48.552;9.380;2023-10-08T00:16:47;17.91;50.29
62464;SHT31;48512;48.552;9.380;2023-10-08T00:19:16;17.89;51.40
62464;SHT31;48512;48.552;9.380;2023-10-08T00:21:43;17.86;51.10
62464;SHT31;48512;48.552;9.380;2023-10-08T00:24:11;17.80;50.71
62464;SHT31;48512;48.552;9.380;2023-10-08T00:26:40;18.00;48.97
62464;SHT31;48512;48.552;9.380;2023-10-08T00:29:08;18.01;49.88
62464;SHT31;48512;48.552;9.380;2023-10-08T00:31:48;17.96;49.60
62464;SHT31;48512;48.552;9.380;2023-10-08T00:34:16;17.93;49.65
62464;SHT31;48512;48.552;9.380;2023-10-08T00:36:46;17.96;48.77
62464;SHT31;48512;48.552;9.380;2023-10-08T00:39:14;17.98;48.52
62464;SHT31;48512;48.552;9.380;2023-10-08T00:41:44;18.02;48.34
62464;SHT31;48512;48.552;9.380;2023-10-08T00:44:11;18.07;48.17
62464;SHT31;48512;48.552;9.380;2023-10-08T00:47:04;18.12;47.88
62464;SHT31;48512;48.552;9.380;2023-10-08T00:49:31;18.17;47.59
62464;SHT31;48512;48.552;9.380;2023-10-08T00:52:11;18.21;47.81
62464;SHT31;48512;48.552;9.380;2023-10-08T00:54:38;18.35;47.17
62464;SHT31;48512;48.552;9.380;2023-10-08T00:57:28;18.51;46.94
62464;SHT31;48512;48.552;9.380;2023-10-08T00:59:57;18.45;47.74
62464;SHT31;48512;48.552;9.380;2023-10-08T01:02:29;18.39;47.95
62464;SHT31;48512;48.552;9.380;2023-10-08T01:05:12;18.46;47.48
62464;SHT31;48512;48.552;9.380;2023-10-08T01:07:41;18.46;48.07
62464;SHT31;48512;48.552;9.380;2023-10-08T01:10:11;18.38;48.54
62464;SHT31;48512;48.552;9.380;2023-10-08T01:12:39;18.31;49.56
62464;SHT31;48512;48.552;9.380;2023-10-08T01:15:21;18.22;49.41
62464;SHT31;48512;48.552;9.380;2023-10-08T01:17:58;18.18;48.86
62464;SHT31;48512;48.552;9.380;2023-10-08T01:20:28;18.15;49.55
62464;SHT31;48512;48.552;9.380;2023-10-08T01:23:08;18.15;49.05
62464;SHT31;48512;48.552;9.380;2023-10-08T01:25:40;18.18;48.97
62464;SHT31;48512;48.552;9.380;2023-10-08T01:28:08;18.29;48.12
62464;SHT31;48512;48.552;9.380;2023-10-08T01:30:41;18.25;49.25
62464;SHT31;48512;48.552;9.380;2023-10-08T01:33:09;18.25;48.87
62464;SHT31;48512;48.552;9.380;2023-10-08T01:35:39;18.29;48.56
62464;SHT31;48512;48.552;9.380;2023-10-08T01:38:06;18.37;48.11
62464;SHT31;48512;48.552;9.380;2023-10-08T01:40:33;18.55;47.45
62464;SHT31;48512;48.552;9.380;2023-10-08T01:42:59;18.53;47.69
62464;SHT31;48512;48.552;9.380;2023-10-08T01:45:26;18.59;48.05
62464;SHT31;48512;48.552;9.380;2023-10-08T01:47:52;18.56;47.91
62464;SHT31;48512;48.552;9.380;2023-10-08T01:50:21;18.52;48.31
62464;SHT31;48512;48.552;9.380;2023-10-08T01:52:48;18.49;48.53
62464;SHT31;48512;48.552;9.380;2023-10-08T01:55:14;18.60;47.91
62464;SHT31;48512;48.552;9.380;2023-10-08T01:57:48;18.55;48.51
62464;SHT31;48512;48.552;9.380;2023-10-08T02:00:15;18.55;48.34
62464;SHT31;48512;48.552;9.380;2023-10-08T02:02:46;18.52;48.41
62464;SHT31;48512;48.552;9.380;2023-10-08T02:05:13;18.53;48.49
62464;SHT31;48512;48.552;9.380;2023-10-08T02:07:41;18.56;48.39
62464;SHT31;48512;48.552;9.380;2023-10-08T02:10:10;18.48;48.80
62464;SHT31;48512;48.552;9.380;2023-10-08T02:12:40;18.44;49.20
62464;SHT31;48512;48.552;9.380;2023-10-08T02:15:08;18.35;49.35
62464;SHT31;48512;48.552;9.380;2023-10-08T02:17:34;18.31;49.60
62464;SHT31;48512;48.552;9.380;2023-10-08T02:20:01;18.29;49.30
62464;SHT31;48512;48.552;9.380;2023-10-08T02:22:31;18.21;49.59
62464;SHT31;48512;48.552;9.380;2023-10-08T02:24:59;18.24;49.64
62464;SHT31;48512;48.552;9.380;2023-10-08T02:27:28;18.22;50.55
62464;SHT31;48512;48.552;9.380;2023-10-08T02:29:54;18.14;50.50
62464;SHT31;48512;48.552;9.380;2023-10-08T02:32:21;18.05;51.03
62464;SHT31;48512;48.552;9.380;2023-10-08T02:34:50;17.98;51.65
62464;SHT31;48512;48.552;9.380;2023-10-08T02:37:18;17.84;51.96
62464;SHT31;48512;48.552;9.380;2023-10-08T02:39:45;17.80;52.49
62464;SHT31;48512;48.552;9.380;2023-10-08T02:42:11;17.69;52.81
62464;SHT31;48512;48.552;9.380;2023-10-08T02:44:40;17.60;53.13
62464;SHT31;48512;48.552;9.380;2023-10-08T02:47:09;17.54;53.50
62464;SHT31;48512;48.552;9.380;2023-10-08T02:49:46;17.42;54.43
62464;SHT31;48512;48.552;9.380;2023-10-08T02:52:18;17.36;54.09
62464;SHT31;48512;48.552;9.380;2023-10-08T02:54:44;17.32;54.75
62464;SHT31;48512;48.552;9.380;2023-10-08T02:57:10;17.25;54.69
62464;SHT31;48512;48.552;9.380;2023-10-08T02:59:40;17.16;55.47
62464;SHT31;48512;48.552;9.380;2023-10-08T03:02:12;17.05;55.44
62464;SHT31;48512;48.552;9.380;2023-10-08T03:04:45;16.94;55.92
62464;SHT31;48512;48.552;9.380;2023-10-08T03:07:15;16.83;56.27
62464;SHT31;48512;48.552;9.380;2023-10-08T03:09:52;16.70;57.39
62464;SHT31;48512;48.552;9.380;2023-10-08T03:12:30;16.52;57.64
62464;SHT31;48512;48.552;9.380;2023-10-08T03:14:59;16.30;58.05
62464;SHT31;48512;48.552;9.380;2023-10-08T03:17:48;16.22;58.94
62464;SHT31;48512;48.552;9.380;2023-10-08T03:20:18;16.02;59.62
62464;SHT31;48512;48.552;9.380;2023-10-08T03:23:03;16.01;59.60
62464;SHT31;48512;48.552;9.380;2023-10-08T03:25:33;16.01;59.61
62464;SHT31;48512;48.552;9.380;2023-10-08T03:28:10;16.02;59.76
62464;SHT31;48512;48.552;9.380;2023-10-08T03:30:39;15.90;60.13
62464;SHT31;48512;48.552;9.380;2023-10-08T03:33:17;15.90;60.42
62464;SHT31;48512;48.552;9.380;2023-10-08T03:35:52;15.82;60.85
62464;SHT31;48512;48.552;9.380;2023-10-08T03:38:19;15.81;61.15
62464;SHT31;48512;48.552;9.380;2023-10-08T03:40:55;15.73;61.48
62464;SHT31;48512;48.552;9.380;2023-10-08T03:43:32;15.60;62.49
62464;SHT31;48512;48.552;9.380;2023-10-08T03:46:09;15.60;62.18
62464;SHT31;48512;48.552;9.380;2023-10-08T03:48:43;15.57;62.17
62464;SHT31;48512;48.552;9.380;2023-10-08T03:51:12;15.58;62.62
62464;SHT31;48512;48.552;9.380;2023-10-08T03:53:39;15.58;62.06
62464;SHT31;48512;48.552;9.380;2023-10-08T03:56:27;15.54;62.16
62464;SHT31;48512;48.552;9.380;2023-10-08T03:58:56;15.57;61.97
62464;SHT31;48512;48.552;9.380;2023-10-08T04:01:26;15.58;62.01
62464;SHT31;48512;48.552;9.380;2023-10-08T04:03:57;15.60;61.84
62464;SHT31;48512;48.552;9.380;2023-10-08T04:06:28;15.63;61.61
62464;SHT31;48512;48.552;9.380;2023-10-08T04:09:00;15.64;61.70
62464;SHT31;48512;48.552;9.380;2023-10-08T04:11:36;15.58;61.84
62464;SHT31;48512;48.552;9.380;2023-10-08T04:14:09;15.55;62.11
62464;SHT31;48512;48.552;9.380;2023-10-08T04:16:35;15.50;61.94
62464;SHT31;48512;48.552;9.380;2023-10-08T04:19:04;15.43;62.08
62464;SHT31;48512;48.552;9.380;2023-10-08T04:21:30;15.40;62.36
62464;SHT31;48512;48.552;9.380;2023-10-08T04:24:00;15.30;62.28
62464;SHT31;48512;48.552;9.380;2023-10-08T04:26:35;15.08;62.98
62464;SHT31;48512;48.552;9.380;2023-10-08T04:29:02;14.98;63.09
62464;SHT31;48512;48.552;9.380;2023-10-08T04:31:29;14.95;63.52
62464;SHT31;48512;48.552;9.380;2023-10-08T04:34:12;14.89;63.73
62464;SHT31;48512;48.552;9.380;2023-10-08T04:36:43;14.79;64.39
62464;SHT31;48512;48.552;9.380;2023-10-08T04:39:14;14.68;65.26
62464;SHT31;48512;48.552;9.380;2023-10-08T04:41:47;14.64;66.17
62464;SHT31;48512;48.552;9.380;2023-10-08T04:44:20;14.57;66.88
62464;SHT31;48512;48.552;9.380;2023-10-08T04:46:47;14.48;67.77
62464;SHT31;48512;48.552;9.380;2023-10-08T04:49:18;14.48;67.97
62464;SHT31;48512;48.552;9.380;2023-10-08T04:51:55;14.38;68.58
62464;SHT31;48512;48.552;9.380;2023-10-08T04:54:28;14.41;68.40
62464;SHT31;48512;48.552;9.380;2023-10-08T04:57:00;14.40;68.69
62464;SHT31;48512;48.552;9.380;2023-10-08T04:59:30;14.38;68.67
62464;SHT31;48512;48.552;9.380;2023-10-08T05:02:03;14.34;68.42
62464;SHT31;48512;48.552;9.380;2023-10-08T05:04:39;14.36;68.38
62464;SHT31;48512;48.552;9.380;2023-10-08T05:07:24;14.34;68.26
62464;SHT31;48512;48.552;9.380;2023-10-08T05:09:53;14.34;68.25
62464;SHT31;48512;48.552;9.380;2023-10-08T05:12:35;14.30;68.52
62464;SHT31;48512;48.552;9.380;2023-10-08T05:15:09;14.33;68.63
62464;SHT31;48512;48.552;9.380;2023-10-08T05:17:42;14.33;68.40
62464;SHT31;48512;48.552;9.380;2023-10-08T05:20:19;14.30;68.16
62464;SHT31;48512;48.552;9.380;2023-10-08T05:22:56;14.33;68.26
62464;SHT31;48512;48.552;9.380;2023-10-08T05:25:32;14.34;68.01
62464;SHT31;48512;48.552;9.380;2023-10-08T05:28:06;14.30;68.26
62464;SHT31;48512;48.552;9.380;2023-10-08T05:30:35;14.33;68.40
62464;SHT31;48512;48.552;9.380;2023-10-08T05:33:08;14.31;68.40
62464;SHT31;48512;48.552;9.380;2023-10-08T05:35:45;14.30;68.85
62464;SHT31;48512;48.552;9.380;2023-10-08T05:38:14;14.24;69.00
62464;SHT31;48512;48.552;9.380;2023-10-08T05:41:04;14.20;69.12
62464;SHT31;48512;48.552;9.380;2023-10-08T05:43:37;14.17;69.04
62464;SHT31;48512;48.552;9.380;2023-10-08T05:46:15;14.19;69.43
62464;SHT31;48512;48.552;9.380;2023-10-08T05:48:54;14.14;69.95
62464;SHT31;48512;48.552;9.380;2023-10-08T05:51:38;14.13;70.05
62464;SHT31;48512;48.552;9.380;2023-10-08T05:54:18;14.10;70.22
62464;SHT31;48512;48.552;9.380;2023-10-08T05:56:53;14.09;70.44
62464;SHT31;48512;48.552;9.380;2023-10-08T05:59:46;14.13;70.38
62464;SHT31;48512;48.552;9.380;2023-10-08T06:02:21;14.06;70.96
62464;SHT31;48512;48.552;9.380;2023-10-08T06:05:02;14.02;70.79
62464;SHT31;48512;48.552;9.380;2023-10-08T06:07:41;14.03;70.73
62464;SHT31;48512;48.552;9.380;2023-10-08T06:13:02;14.09;71.15
62464;SHT31;48512;48.552;9.380;2023-10-08T06:15:39;14.12;70.78
62464;SHT31;48512;48.552;9.380;2023-10-08T06:18:19;14.14;71.21
62464;SHT31;48512;48.552;9.380;2023-10-08T06:20:48;14.20;70.81
62464;SHT31;48512;48.552;9.380;2023-10-08T06:23:17;14.23;70.43
62464;SHT31;48512;48.552;9.380;2023-10-08T06:25:47;14.31;70.32
62464;SHT31;48512;48.552;9.380;2023-10-08T06:28:14;14.40;69.93
62464;SHT31;48512;48.552;9.380;2023-10-08T06:30:48;14.50;69.52
62464;SHT31;48512;48.552;9.380;2023-10-08T06:33:15;14.52;69.92
62464;SHT31;48512;48.552;9.380;2023-10-08T06:35:42;14.60;69.17
62464;SHT31;48512;48.552;9.380;2023-10-08T06:38:22;14.68;71.45
62464;SHT31;48512;48.552;9.380;2023-10-08T06:40:50;14.81;70.86
62464;SHT31;48512;48.552;9.380;2023-10-08T06:43:18;14.96;73.60
62464;SHT31;48512;48.552;9.380;2023-10-08T06:45:51;15.37;72.85
62464;SHT31;48512;48.552;9.380;2023-10-08T06:48:19;15.92;72.09
62464;SHT31;48512;48.552;9.380;2023-10-08T06:50:50;15.80;67.70
62464;SHT31;48512;48.552;9.380;2023-10-08T06:53:17;15.68;67.31
62464;SHT31;48512;48.552;9.380;2023-10-08T06:55:47;15.73;65.28
62464;SHT31;48512;48.552;9.380;2023-10-08T06:58:23;15.75;64.16
62464;SHT31;48512;48.552;9.380;2023-10-08T07:00:51;15.84;64.61
62464;SHT31;48512;48.552;9.380;2023-10-08T07:03:18;15.92;64.84
62464;SHT31;48512;48.552;9.380;2023-10-08T07:05:46;16.05;61.85
62464;SHT31;48512;48.552;9.380;2023-10-08T07:08:21;16.15;62.50
62464;SHT31;48512;48.552;9.380;2023-10-08T07:10:53;16.33;62.71
62464;SHT31;48512;48.552;9.380;2023-10-08T07:13:19;16.38;62.48
62464;SHT31;48512;48.552;9.380;2023-10-08T07:15:49;16.42;65.21
62464;SHT31;48512;48.552;9.380;2023-10-08T07:18:16;16.43;66.43
62464;SHT31;48512;48.552;9.380;2023-10-08T07:20:52;16.56;64.13
62464;SHT31;48512;48.552;9.380;2023-10-08T07:23:23;16.64;63.37
62464;SHT31;48512;48.552;9.380;2023-10-08T07:25:55;16.77;62.58
62464;SHT31;48512;48.552;9.380;2023-10-08T07:31:33;17.07;62.73
62464;SHT31;48512;48.552;9.380;2023-10-08T07:34:00;17.26;61.54
62464;SHT31;48512;48.552;9.380;2023-10-08T07:36:42;17.56;58.89
62464;SHT31;48512;48.552;9.380;2023-10-08T07:39:09;17.70;60.01
62464;SHT31;48512;48.552;9.380;2023-10-08T07:41:48;17.83;59.90
62464;SHT31;48512;48.552;9.380;2023-10-08T07:44:15;17.97;60.72
62464;SHT31;48512;48.552;9.380;2023-10-08T07:46:41;18.11;60.83
62464;SHT31;48512;48.552;9.380;2023-10-08T07:49:08;18.28;59.61
62464;SHT31;48512;48.552;9.380;2023-10-08T07:51:40;18.38;58.07
62464;SHT31;48512;48.552;9.380;2023-10-08T07:54:06;18.48;57.85
62464;SHT31;48512;48.552;9.380;2023-10-08T07:56:35;18.53;58.21
62464;SHT31;48512;48.552;9.380;2023-10-08T07:59:03;18.58;57.89
62464;SHT31;48512;48.552;9.380;2023-10-08T08:01:38;18.72;59.15
62464;SHT31;48512;48.552;9.380;2023-10-08T08:04:04;18.79;57.52
62464;SHT31;48512;48.552;9.380;2023-10-08T08:06:39;18.93;57.20
62464;SHT31;48512;48.552;9.380;2023-10-08T08:09:05;19.07;54.86
62464;SHT31;48512;48.552;9.380;2023-10-08T08:11:46;19.18;55.74
62464;SHT31;48512;48.552;9.380;2023-10-08T08:14:15;19.27;54.46
62464;SHT31;48512;48.552;9.380;2023-10-08T08:16:51;19.41;54.29
62464;SHT31;48512;48.552;9.380;2023-10-08T08:19:17;19.50;56.28
62464;SHT31;48512;48.552;9.380;2023-10-08T08:21:50;19.54;56.08
62464;SHT31;48512;48.552;9.380;2023-10-08T08:24:18;19.61;53.71
62464;SHT31;48512;48.552;9.380;2023-10-08T08:26:57;19.71;54.11
62464;SHT31;48512;48.552;9.380;2023-10-08T08:29:53;19.80;53.81
62464;SHT31;48512;48.552;9.380;2023-10-08T08:32:22;19.89;53.82
62464;SHT31;48512;48.552;9.380;2023-10-08T08:34:49;19.90;54.26
62464;SHT31;48512;48.552;9.380;2023-10-08T08:37:16;19.99;53.76
62464;SHT31;48512;48.552;9.380;2023-10-08T08:39:43;20.03;54.53
62464;SHT31;48512;48.552;9.380;2023-10-08T08:42:09;20.07;52.96
62464;SHT31;48512;48.552;9.380;2023-10-08T08:44:37;20.12;51.53
62464;SHT31;48512;48.552;9.380;2023-10-08T08:47:12;20.23;51.82
62464;SHT31;48512;48.552;9.380;2023-10-08T08:49:44;20.36;52.75
62464;SHT31;48512;48.552;9.380;2023-10-08T08:52:14;20.45;51.06
62464;SHT31;48512;48.552;9.380;2023-10-08T08:54:41;20.69;52.02
62464;SHT31;48512;48.552;9.380;2023-10-08T08:57:09;20.89;52.34
62464;SHT31;48512;48.552;9.380;2023-10-08T08:59:58;21.10;51.49
62464;SHT31;48512;48.552;9.380;2023-10-08T09:02:24;21.37;51.35
62464;SHT31;48512;48.552;9.380;2023-10-08T09:04:50;21.55;50.31
62464;SHT31;48512;48.552;9.380;2023-10-08T09:07:23;21.68;50.37
62464;SHT31;48512;48.552;9.380;2023-10-08T09:09:49;21.74;51.34
62464;SHT31;48512;48.552;9.380;2023-10-08T09:12:18;21.74;52.25
62464;SHT31;48512;48.552;9.380;2023-10-08T09:14:47;21.82;53.39
62464;SHT31;48512;48.552;9.380;2023-10-08T09:17:16;21.89;53.58
62464;SHT31;48512;48.552;9.380;2023-10-08T09:19:43;21.99;53.89
62464;SHT31;48512;48.552;9.380;2023-10-08T09:22:10;22.06;52.75
62464;SHT31;48512;48.552;9.380;2023-10-08T09:24:38;22.01;52.47
62464;SHT31;48512;48.552;9.380;2023-10-08T09:27:09;22.01;52.77
62464;SHT31;48512;48.552;9.380;2023-10-08T09:29:42;22.18;52.42
62464;SHT31;48512;48.552;9.380;2023-10-08T09:32:10;22.37;52.10
62464;SHT31;48512;48.552;9.380;2023-10-08T09:34:37;22.65;51.72
62464;SHT31;48512;48.552;9.380;2023-10-08T09:37:03;22.87;50.76
62464;SHT31;48512;48.552;9.380;2023-10-08T09:39:30;23.07;50.98
62464;SHT31;48512;48.552;9.380;2023-10-08T09:42:02;23.22;50.99
62464;SHT31;48512;48.552;9.380;2023-10-08T09:44:29;23.42;50.06
62464;SHT31;48512;48.552;9.380;2023-10-08T09:47:02;23.65;49.19
62464;SHT31;48512;48.552;9.380;2023-10-08T09:49:39;23.94;48.93
62464;SHT31;48512;48.552;9.380;2023-10-08T09:52:08;24.25;48.78
62464;SHT31;48512;48.552;9.380;2023-10-08T09:55:01;24.51;47.48
62464;SHT31;48512;48.552;9.380;2023-10-08T09:57:31;24.70;46.16
62464;SHT31;48512;48.552;9.380;2023-10-08T09:59:59;24.99;46.58
62464;SHT31;48512;48.552;9.380;2023-10-08T10:02:25;25.09;46.34
62464;SHT31;48512;48.552;9.380;2023-10-08T10:04:55;24.93;43.26
62464;SHT31;48512;48.552;9.380;2023-10-08T10:07:21;25.18;45.35
62464;SHT31;48512;48.552;9.380;2023-10-08T10:09:51;25.41;43.77
62464;SHT31;48512;48.552;9.380;2023-10-08T10:12:25;25.38;42.74
62464;SHT31;48512;48.552;9.380;2023-10-08T10:14:55;25.51;42.09
62464;SHT31;48512;48.552;9.380;2023-10-08T10:17:26;25.54;41.39
62464;SHT31;48512;48.552;9.380;2023-10-08T10:19:56;25.59;41.58
62464;SHT31;48512;48.552;9.380;2023-10-08T10:22:35;25.68;40.97
62464;SHT31;48512;48.552;9.380;2023-10-08T10:25:02;25.64;40.58
62464;SHT31;48512;48.552;9.380;2023-10-08T10:28:28;25.54;40.75
62464;SHT31;48512;48.552;9.380;2023-10-08T10:30:34;25.66;41.26
62464;SHT31;48512;48.552;9.380;2023-10-08T10:33:01;25.52;40.49
62464;SHT31;48512;48.552;9.380;2023-10-08T10:35:27;25.52;40.78
62464;SHT31;48512;48.552;9.380;2023-10-08T10:37:54;25.42;40.94
62464;SHT31;48512;48.552;9.380;2023-10-08T10:40:29;25.47;40.88
62464;SHT31;48512;48.552;9.380;2023-10-08T10:42:58;25.57;40.61
62464;SHT31;48512;48.552;9.380;2023-10-08T10:45:29;26.14;40.80
62464;SHT31;48512;48.552;9.380;2023-10-08T10:48:13;26.44;40.13
62464;SHT31;48512;48.552;9.380;2023-10-08T10:50:46;26.60;39.86
62464;SHT31;48512;48.552;9.380;2023-10-08T10:53:38;26.72;39.48
62464;SHT31;48512;48.552;9.380;2023-10-08T10:56:12;26.85;39.76
62464;SHT31;48512;48.552;9.380;2023-10-08T10:58:47;26.57;39.68
62464;SHT31;48512;48.552;9.380;2023-10-08T11:01:37;26.65;39.58
62464;SHT31;48512;48.552;9.380;2023-10-08T11:04:14;26.62;40.28
62464;SHT31;48512;48.552;9.380;2023-10-08T11:06:48;26.64;39.41
62464;SHT31;48512;48.552;9.380;2023-10-08T11:09:16;27.08;38.64
62464;SHT31;48512;48.552;9.380;2023-10-08T11:11:56;27.58;38.16
62464;SHT31;48512;48.552;9.380;2023-10-08T11:14:25;27.88;37.85
62464;SHT31;48512;48.552;9.380;2023-10-08T11:16:51;28.39;37.37
62464;SHT31;48512;48.552;9.380;2023-10-08T11:19:19;28.73;37.03
62464;SHT31;48512;48.552;9.380;2023-10-08T11:21:49;29.04;36.45
62464;SHT31;48512;48.552;9.380;2023-10-08T11:24:32;29.11;36.38
62464;SHT31;48512;48.552;9.380;2023-10-08T11:27:04;28.71;37.03
62464;SHT31;48512;48.552;9.380;2023-10-08T11:29:48;28.59;37.72
62464;SHT31;48512;48.552;9.380;2023-10-08T11:32:23;28.57;37.88
62464;SHT31;48512;48.552;9.380;2023-10-08T11:34:58;28.60;37.96
62464;SHT31;48512;48.552;9.380;2023-10-08T11:37:45;28.56;37.69
62464;SHT31;48512;48.552;9.380;2023-10-08T11:40:27;28.48;38.36
62464;SHT31;48512;48.552;9.380;2023-10-08T11:43:15;28.09;38.69
62464;SHT31;48512;48.552;9.380;2023-10-08T11:45:44;27.95;39.16
62464;SHT31;48512;48.552;9.380;2023-10-08T11:48:17;27.76;39.46
62464;SHT31;48512;48.552;9.380;2023-10-08T11:50:48;27.71;39.51
62464;SHT31;48512;48.552;9.380;2023-10-08T11:53:16;27.90;39.38
62464;SHT31;48512;48.552;9.380;2023-10-08T11:55:47;28.05;39.44
62464;SHT31;48512;48.552;9.380;2023-10-08T11:58:14;28.55;38.53
62464;SHT31;48512;48.552;9.380;2023-10-08T12:00:49;28.81;38.32
62464;SHT31;48512;48.552;9.380;2023-10-08T12:03:18;28.84;38.54
62464;SHT31;48512;48.552;9.380;2023-10-08T12:05:48;28.90;38.81
62464;SHT31;48512;48.552;9.380;2023-10-08T12:08:15;28.73;38.56
62464;SHT31;48512;48.552;9.380;2023-10-08T12:10:45;28.56;38.34
62464;SHT31;48512;48.552;9.380;2023-10-08T12:13:12;28.61;39.08
62464;SHT31;48512;48.552;9.380;2023-10-08T12:15:38;28.22;39.48
62464;SHT31;48512;48.552;9.380;2023-10-08T12:18:05;28.15;39.98
62464;SHT31;48512;48.552;9.380;2023-10-08T12:20:38;28.08;40.36
62464;SHT31;48512;48.552;9.380;2023-10-08T12:23:05;28.08;40.40
62464;SHT31;48512;48.552;9.380;2023-10-08T12:25:32;28.09;40.31
62464;SHT31;48512;48.552;9.380;2023-10-08T12:28:00;28.13;40.04
62464;SHT31;48512;48.552;9.380;2023-10-08T12:30:33;28.15;39.68
62464;SHT31;48512;48.552;9.380;2023-10-08T12:33:07;28.22;39.48
62464;SHT31;48512;48.552;9.380;2023-10-08T12:35:35;28.50;39.59
62464;SHT31;48512;48.552;9.380;2023-10-08T12:38:03;29.11;38.67
62464;SHT31;48512;48.552;9.380;2023-10-08T12:40:31;29.41;38.37
62464;SHT31;48512;48.552;9.380;2023-10-08T12:43:16;29.81;37.86
62464;SHT31;48512;48.552;9.380;2023-10-08T12:45:48;30.29;37.35
62464;SHT31;48512;48.552;9.380;2023-10-08T12:48:26;30.42;37.35
62464;SHT31;48512;48.552;9.380;2023-10-08T12:50:54;30.51;37.96
62464;SHT31;48512;48.552;9.380;2023-10-08T12:53:24;30.74;36.92
62464;SHT31;48512;48.552;9.380;2023-10-08T12:55:54;31.16;36.05
62464;SHT31;48512;48.552;9.380;2023-10-08T12:58:21;31.40;35.18
62464;SHT31;48512;48.552;9.380;2023-10-08T13:00:52;31.54;35.30
62464;SHT31;48512;48.552;9.380;2023-10-08T13:03:29;31.72;34.68
62464;SHT31;48512;48.552;9.380;2023-10-08T13:05:59;31.95;34.88
62464;SHT31;48512;48.552;9.380;2023-10-08T13:08:32;32.15;34.32
62464;SHT31;48512;48.552;9.380;2023-10-08T13:10:59;31.85;33.62
62464;SHT31;48512;48.552;9.380;2023-10-08T13:13:27;32.23;33.11
62464;SHT31;48512;48.552;9.380;2023-10-08T13:15:54;32.47;33.15
62464;SHT31;48512;48.552;9.380;2023-10-08T13:18:22;32.71;32.63
62464;SHT31;48512;48.552;9.380;2023-10-08T13:20:52;32.46;32.46
62464;SHT31;48512;48.552;9.380;2023-10-08T13:23:18;32.40;32.47
62464;SHT31;48512;48.552;9.380;2023-10-08T13:25:50;32.71;32.51
62464;SHT31;48512;48.552;9.380;2023-10-08T13:28:21;32.80;32.32
62464;SHT31;48512;48.552;9.380;2023-10-08T13:30:49;32.78;32.14
62464;SHT31;48512;48.552;9.380;2023-10-08T13:33:19;32.97;32.21
62464;SHT31;48512;48.552;9.380;2023-10-08T13:35:46;33.11;31.76
62464;SHT31;48512;48.552;9.380;2023-10-08T13:38:12;33.23;31.86
62464;SHT31;48512;48.552;9.380;2023-10-08T13:40:39;33.26;32.23
62464;SHT31;48512;48.552;9.380;2023-10-08T13:43:09;33.35;32.07
62464;SHT31;48512;48.552;9.380;2023-10-08T13:45:37;33.41;31.89
62464;SHT31;48512;48.552;9.380;2023-10-08T13:48:05;33.43;31.97
62464;SHT31;48512;48.552;9.380;2023-10-08T13:50:32;33.53;31.84
62464;SHT31;48512;48.552;9.380;2023-10-08T13:52:58;33.41;31.74
62464;SHT31;48512;48.552;9.380;2023-10-08T13:55:27;33.42;31.60
62464;SHT31;48512;48.552;9.380;2023-10-08T13:57:55;33.18;31.69
62464;SHT31;48512;48.552;9.380;2023-10-08T14:00:23;33.12;31.82
62464;SHT31;48512;48.552;9.380;2023-10-08T14:02:52;33.29;32.00
62464;SHT31;48512;48.552;9.380;2023-10-08T14:05:19;33.02;31.69
62464;SHT31;48512;48.552;9.380;2023-10-08T14:07:50;33.22;31.73
62464;SHT31;48512;48.552;9.380;2023-10-08T14:10:18;32.99;31.37
62464;SHT31;48512;48.552;9.380;2023-10-08T14:12:45;33.02;31.86
62464;SHT31;48512;48.552;9.380;2023-10-08T14:15:17;33.08;31.72
62464;SHT31;48512;48.552;9.380;2023-10-08T14:17:46;33.01;32.05
62464;SHT31;48512;48.552;9.380;2023-10-08T14:20:19;32.77;32.76
62464;SHT31;48512;48.552;9.380;2023-10-08T14:22:49;32.87;32.48
62464;SHT31;48512;48.552;9.380;2023-10-08T14:25:26;32.88;32.00
62464;SHT31;48512;48.552;9.380;2023-10-08T14:27:53;32.85;32.32
62464;SHT31;48512;48.552;9.380;2023-10-08T14:30:20;32.40;32.76
62464;SHT31;48512;48.552;9.380;2023-10-08T14:32:50;31.77;33.11
62464;SHT31;48512;48.552;9.380;2023-10-08T14:35:16;31.37;33.84
62464;SHT31;48512;48.552;9.380;2023-10-08T14:38:01;30.99;34.31
62464;SHT31;48512;48.552;9.380;2023-10-08T14:40:46;30.68;34.60
62464;SHT31;48512;48.552;9.380;2023-10-08T14:43:31;30.41;35.05
62464;SHT31;48512;48.552;9.380;2023-10-08T14:46:00;30.21;35.80
62464;SHT31;48512;48.552;9.380;2023-10-08T14:48:31;29.91;35.75
62464;SHT31;48512;48.552;9.380;2023-10-08T14:51:01;29.90;36.06
62464;SHT31;48512;48.552;9.380;2023-10-08T14:53:29;30.07;36.67
62464;SHT31;48512;48.552;9.380;2023-10-08T14:55:57;30.28;36.32
62464;SHT31;48512;48.552;9.380;2023-10-08T14:58:23;30.34;36.21
62464;SHT31;48512;48.552;9.380;2023-10-08T15:00:51;30.42;35.93
62464;SHT31;48512;48.552;9.380;2023-10-08T15:03:20;30.27;36.25
62464;SHT31;48512;48.552;9.380;2023-10-08T15:05:47;30.20;36.51
62464;SHT31;48512;48.552;9.380;2023-10-08T15:08:13;30.08;36.82
62464;SHT31;48512;48.552;9.380;2023-10-08T15:10:40;30.11;37.73
62464;SHT31;48512;48.552;9.380;2023-10-08T15:13:07;30.18;37.81
62464;SHT31;48512;48.552;9.380;2023-10-08T15:15:33;30.11;38.51
62464;SHT31;48512;48.552;9.380;2023-10-08T15:18:06;29.77;39.10
62464;SHT31;48512;48.552;9.380;2023-10-08T15:20:32;29.62;39.52
62464;SHT31;48512;48.552;9.380;2023-10-08T15:22:59;29.35;39.60
62464;SHT31;48512;48.552;9.380;2023-10-08T15:25:26;29.29;39.80
62464;SHT31;48512;48.552;9.380;2023-10-08T15:27:52;29.21;40.10
62464;SHT31;48512;48.552;9.380;2023-10-08T15:30:19;29.08;40.01
62464;SHT31;48512;48.552;9.380;2023-10-08T15:32:47;28.94;39.97
62464;SHT31;48512;48.552;9.380;2023-10-08T15:35:15;28.83;40.14
62464;SHT31;48512;48.552;9.380;2023-10-08T15:37:46;28.74;40.49
62464;SHT31;48512;48.552;9.380;2023-10-08T15:40:13;28.57;40.54
62464;SHT31;48512;48.552;9.380;2023-10-08T15:42:53;28.52;41.04
62464;SHT31;48512;48.552;9.380;2023-10-08T15:45:20;28.49;41.15
62464;SHT31;48512;48.552;9.380;2023-10-08T15:47:47;28.42;41.32
62464;SHT31;48512;48.552;9.380;2023-10-08T15:50:15;28.32;41.42
62464;SHT31;48512;48.552;9.380;2023-10-08T15:52:41;28.12;41.98
62464;SHT31;48512;48.552;9.380;2023-10-08T15:55:08;27.88;42.80
62464;SHT31;48512;48.552;9.380;2023-10-08T15:57:34;27.76;43.27
62464;SHT31;48512;48.552;9.380;2023-10-08T16:00:00;27.58;43.60
62464;SHT31;48512;48.552;9.380;2023-10-08T16:02:30;27.36;44.07